CheckWX is a tool to help pilots better visualize weather data.  It is not intended as a substitute for an official pre-flight weather briefing.

06:44:47 UTC

VRMG TAF
Gan International Airport
Gan, Maldives
TAF VRMG 160500Z 1606/1712 16008KT 9999 SCT017TCU BKN100 TEMPO 1606/1612 2000 +TSRA SCT017CB

Jun-16@
06:00 UTC

Jun-16 @ 06:00 UTC

Jun-17@
12:00 UTC

Jun-17 @ 12:00 UTC

TAF VRMG 160500Z 1606/1712 16008KT 9999 SCT017TCU BKN100
Wind
  • 160° at 8 KTS
Cloud Levels
  • Scattered at 1,700' AGL
  • Broken at 10,000' AGL

Jun-16@
06:00 UTC

Jun-16 @ 06:00 UTC

Jun-16@
12:00 UTC

Jun-16 @ 12:00 UTC

TEMPO 1606/1612 2000 +TSRA SCT017CB

Temporary

Temporary Changes expected for less than half the time period

Conditions
Heavy Thunderstorm, Heavy Rain
Cloud Levels
  • Scattered at 1,700' AGL